createdAt,value
2022-07-25T00:04:25.882Z,60.43
2022-07-25T00:09:16.336Z,61.57
2022-07-25T00:14:09.808Z,61.51
2022-07-25T00:19:00.487Z,61.29
2022-07-25T00:23:50.250Z,62.06
2022-07-25T00:28:39.941Z,62.46
2022-07-25T00:33:32.872Z,63.31
2022-07-25T00:38:22.789Z,63.90
2022-07-25T00:43:13.742Z,63.91
2022-07-25T00:48:03.459Z,64.63
2022-07-25T00:52:55.779Z,64.78
2022-07-25T00:57:45.716Z,65.62
2022-07-25T01:02:35.489Z,65.32
2022-07-25T01:07:26.031Z,66.21
2022-07-25T01:12:18.319Z,66.90
2022-07-25T01:17:08.324Z,68.63
2022-07-25T01:22:00.645Z,69.20
2022-07-25T01:26:50.293Z,69.94
2022-07-25T01:31:40.083Z,70.95
2022-07-25T01:36:29.850Z,71.20
2022-07-25T01:41:23.045Z,71.54
2022-07-25T01:46:12.875Z,72.14
2022-07-25T01:51:02.679Z,72.39
2022-07-25T01:55:52.744Z,72.51
2022-07-25T02:00:47.267Z,72.81
2022-07-25T02:05:37.358Z,72.97
2022-07-25T02:10:27.073Z,73.61
2022-07-25T02:15:16.857Z,74.16
2022-07-25T02:20:10.199Z,73.94
2022-07-25T02:24:59.977Z,73.92
2022-07-25T02:29:49.687Z,73.35
2022-07-25T02:34:39.391Z,73.70
2022-07-25T02:39:31.653Z,74.01
2022-07-25T02:44:21.640Z,73.56
2022-07-25T02:49:11.392Z,73.81
2022-07-25T02:54:01.227Z,74.14
2022-07-25T02:58:53.497Z,74.99
2022-07-25T03:03:43.183Z,75.15
2022-07-25T03:08:33.156Z,74.78
2022-07-25T03:13:22.954Z,75.00
2022-07-25T03:18:15.470Z,74.93
2022-07-25T03:23:05.385Z,75.77
2022-07-25T03:27:55.106Z,75.98
2022-07-25T03:32:44.805Z,76.47
2022-07-25T03:37:37.751Z,76.85
2022-07-25T03:42:32.184Z,77.23
2022-07-25T03:47:24.786Z,78.31
2022-07-25T03:52:14.637Z,78.10
2022-07-25T03:57:07.221Z,78.46
2022-07-25T04:01:57.478Z,78.91
2022-07-25T04:06:47.263Z,78.44
2022-07-25T04:11:38.523Z,78.63
2022-07-25T04:16:31.431Z,78.19
2022-07-25T04:21:21.207Z,77.26
2022-07-25T04:26:10.982Z,76.73
2022-07-25T04:31:00.845Z,77.13
2022-07-25T04:35:54.291Z,76.95
2022-07-25T04:40:44.659Z,76.65
2022-07-25T04:45:34.810Z,76.73
2022-07-25T04:50:25.858Z,77.34
2022-07-25T04:55:18.457Z,77.09
2022-07-25T05:00:10.800Z,77.27
2022-07-25T05:05:03.034Z,77.03
2022-07-25T05:09:53.158Z,77.55
2022-07-25T05:14:45.743Z,77.44
2022-07-25T05:19:38.225Z,79.75
2022-07-25T05:24:27.635Z,79.04
2022-07-25T05:29:17.211Z,78.50
2022-07-25T05:34:10.003Z,79.86
2022-07-25T05:38:59.616Z,79.56
2022-07-25T05:43:49.095Z,80.49
2022-07-25T05:48:38.979Z,80.75
2022-07-25T05:53:31.351Z,81.93
2022-07-25T05:58:22.202Z,82.74
2022-07-25T06:03:13.595Z,82.86
2022-07-25T06:08:03.759Z,84.54
2022-07-25T06:12:55.891Z,85.08
2022-07-25T06:17:45.667Z,85.78
2022-07-25T06:22:35.245Z,85.51
2022-07-25T06:27:29.093Z,84.91
2022-07-25T06:32:21.473Z,84.50
2022-07-25T06:37:10.971Z,88.94
2022-07-25T06:42:00.465Z,89.25
2022-07-25T06:46:56.643Z,89.00
2022-07-25T06:51:48.637Z,90.97
2022-07-25T06:56:38.080Z,93.50
2022-07-25T07:01:27.626Z,93.03
2022-07-25T07:06:17.313Z,95.15
2022-07-25T07:11:09.862Z,93.55
2022-07-25T07:15:59.694Z,91.21
2022-07-25T07:20:49.157Z,93.61
2022-07-25T07:25:38.716Z,92.19
2022-07-25T07:30:58.609Z,93.49
2022-07-25T07:35:41.344Z,92.59
2022-07-25T07:40:30.956Z,93.32
2022-07-25T07:45:21.501Z,91.67
2022-07-25T07:50:14.276Z,92.56
2022-07-25T07:55:16.212Z,91.89
2022-07-25T08:00:06.378Z,90.76
2022-07-25T08:05:01.585Z,89.23
2022-07-25T08:09:54.145Z,90.28
2022-07-25T08:14:43.624Z,89.46
2022-07-25T08:19:32.990Z,87.35
2022-07-25T08:24:22.549Z,84.78
2022-07-25T08:29:20.646Z,87.20
2022-07-25T08:34:12.343Z,90.25
2022-07-25T08:39:01.776Z,88.24
2022-07-25T08:43:52.243Z,88.86
2022-07-25T08:48:44.991Z,89.94
2022-07-25T08:53:35.438Z,86.84
2022-07-25T08:58:25.243Z,82.95
2022-07-25T09:03:15.155Z,82.98
2022-07-25T09:08:11.782Z,80.65
2022-07-25T09:13:02.381Z,77.89
2022-07-25T09:17:52.837Z,74.69
2022-07-25T09:22:51.572Z,69.95
2022-07-25T09:27:43.684Z,67.72
2022-07-25T09:32:33.223Z,64.89
2022-07-25T09:37:28.139Z,66.88
2022-07-25T09:42:18.831Z,66.23
2022-07-25T09:47:16.530Z,66.46
2022-07-25T09:52:06.235Z,63.19
2022-07-25T09:56:55.663Z,64.23
2022-07-25T10:02:00.661Z,65.75
2022-07-25T10:06:58.209Z,66.84
2022-07-25T10:12:03.087Z,68.49
2022-07-25T10:16:52.867Z,69.70
2022-07-25T10:21:43.749Z,71.02
2022-07-25T10:26:38.806Z,69.49
2022-07-25T10:31:29.620Z,68.85
2022-07-25T10:36:19.374Z,69.24
2022-07-25T10:41:15.448Z,70.61
2022-07-25T10:46:14.141Z,71.11
2022-07-25T10:51:04.521Z,69.71
2022-07-25T10:56:05.857Z,69.46
2022-07-25T11:00:56.196Z,68.61
2022-07-25T11:05:59.283Z,68.75
2022-07-25T11:10:53.675Z,69.82
2022-07-25T11:15:43.431Z,69.51
2022-07-25T11:20:32.844Z,68.94
2022-07-25T11:25:25.864Z,70.12
2022-07-25T11:30:16.978Z,70.01
2022-07-25T11:35:06.662Z,69.03
2022-07-25T11:39:56.557Z,67.55
2022-07-25T11:44:50.237Z,64.43
2022-07-25T11:49:51.305Z,63.16
2022-07-25T11:54:40.785Z,63.69
2022-07-25T11:59:30.204Z,63.84
2022-07-25T12:04:22.538Z,63.10
2022-07-25T12:09:18.940Z,60.66
2022-07-25T12:14:09.320Z,61.83
2022-07-25T12:18:58.870Z,62.54
2022-07-25T12:23:51.075Z,62.82
2022-07-25T12:28:40.601Z,62.43
2022-07-25T12:33:30.299Z,60.42
2022-07-25T12:38:19.773Z,60.18
2022-07-25T12:43:12.236Z,60.91
2022-07-25T12:48:01.635Z,61.53
2022-07-25T12:52:51.037Z,61.72
2022-07-25T12:57:40.608Z,61.51
2022-07-25T13:02:32.783Z,61.35
2022-07-25T13:07:22.425Z,60.37
2022-07-25T13:12:16.429Z,57.40
2022-07-25T13:17:06.489Z,56.74
2022-07-25T13:21:58.906Z,55.82
2022-07-25T13:26:48.833Z,55.58
2022-07-25T13:31:38.359Z,55.65
2022-07-25T13:36:27.941Z,55.08
2022-07-25T13:41:19.962Z,54.95
2022-07-25T13:46:10.505Z,51.09
2022-07-25T13:51:00.118Z,51.35
2022-07-25T13:55:51.981Z,49.28
2022-07-25T14:00:44.130Z,51.04
2022-07-25T14:05:33.703Z,51.27
2022-07-25T14:10:23.187Z,51.20
2022-07-25T14:15:13.615Z,52.51
2022-07-25T14:20:06.107Z,53.09
2022-07-25T14:24:55.504Z,52.70
2022-07-25T14:29:45.737Z,52.41
2022-07-25T14:34:35.700Z,52.85
2022-07-25T14:39:28.327Z,52.92
2022-07-25T14:44:18.453Z,52.63
2022-07-25T14:49:11.394Z,52.72
2022-07-25T14:54:02.152Z,53.02
2022-07-25T14:58:55.181Z,53.28
2022-07-25T15:03:45.238Z,53.60
2022-07-25T15:08:34.825Z,53.12
2022-07-25T15:13:32.596Z,52.57
2022-07-25T15:18:24.875Z,53.29
2022-07-25T15:23:14.345Z,53.86
2022-07-25T15:28:04.502Z,53.32
2022-07-25T15:32:53.937Z,54.25
2022-07-25T15:37:48.120Z,51.43
2022-07-25T15:42:37.745Z,52.08
2022-07-25T15:47:27.548Z,52.93
2022-07-25T15:52:18.110Z,54.25
2022-07-25T15:57:11.004Z,55.00
2022-07-25T16:02:00.693Z,55.59
2022-07-25T16:06:50.428Z,53.82
2022-07-25T16:11:40.137Z,53.60
2022-07-25T16:16:32.545Z,54.19
2022-07-25T16:21:22.356Z,55.78
2022-07-25T16:26:12.414Z,57.54
2022-07-25T16:31:03.450Z,57.02
2022-07-25T16:35:56.440Z,55.68
2022-07-25T16:40:46.336Z,56.54
2022-07-25T16:45:38.321Z,57.73
2022-07-25T16:50:27.756Z,59.11
2022-07-25T16:55:20.336Z,60.71
2022-07-25T17:00:10.804Z,64.84
2022-07-25T17:05:03.868Z,67.09
2022-07-25T17:09:53.377Z,67.14
2022-07-25T17:14:45.847Z,68.28
2022-07-25T17:19:39.780Z,68.66
2022-07-25T17:24:29.313Z,67.81
2022-07-25T17:29:18.975Z,67.70
2022-07-25T17:34:11.092Z,67.29
2022-07-25T17:39:00.552Z,67.30
2022-07-25T17:43:49.930Z,66.73
2022-07-25T17:48:39.966Z,66.67
2022-07-25T17:53:32.104Z,67.83
2022-07-25T17:58:21.540Z,68.87
2022-07-25T18:03:10.991Z,69.30
2022-07-25T18:08:01.835Z,69.11
2022-07-25T18:12:54.172Z,70.37
2022-07-25T18:17:44.679Z,71.00
2022-07-25T18:22:35.202Z,70.21
2022-07-25T18:27:26.690Z,69.74
2022-07-25T18:32:19.551Z,68.86
2022-07-25T18:37:09.554Z,70.29
2022-07-25T18:42:04.884Z,71.05
2022-07-25T18:46:54.844Z,72.21
2022-07-25T18:51:46.888Z,73.16
2022-07-25T18:56:36.433Z,73.08
2022-07-25T19:01:26.154Z,75.35
2022-07-25T19:06:16.381Z,77.41
2022-07-25T19:11:08.812Z,77.52
2022-07-25T19:15:58.358Z,77.20
2022-07-25T19:20:50.682Z,79.02
2022-07-25T19:25:49.475Z,79.00
2022-07-25T19:30:42.696Z,78.55
2022-07-25T19:35:37.464Z,78.36
2022-07-25T19:40:26.976Z,80.22
2022-07-25T19:45:16.451Z,79.26
2022-07-25T19:50:10.055Z,79.86
2022-07-25T19:55:00.350Z,80.56
2022-07-25T19:59:49.764Z,81.96
2022-07-25T20:04:39.229Z,82.25
2022-07-25T20:09:32.761Z,82.70
2022-07-25T20:14:22.185Z,84.93
2022-07-25T20:19:15.106Z,86.27
2022-07-25T20:24:05.765Z,84.92
2022-07-25T20:29:01.251Z,89.16
2022-07-25T20:33:51.154Z,87.58
2022-07-25T20:38:40.544Z,89.03
2022-07-25T20:43:31.307Z,92.72
2022-07-25T20:48:23.426Z,89.98
2022-07-25T20:53:12.928Z,93.37
2022-07-25T20:58:03.147Z,94.17
2022-07-25T21:02:52.684Z,94.24
2022-07-25T21:07:44.786Z,93.79
2022-07-25T21:12:35.503Z,95.08
2022-07-25T21:17:24.906Z,96.96
2022-07-25T21:22:14.387Z,94.90
2022-07-25T21:27:06.832Z,96.73
2022-07-25T21:31:56.496Z,95.39
2022-07-25T21:36:45.980Z,97.99
2022-07-25T21:41:35.561Z,97.85
2022-07-25T21:46:27.699Z,98.88
2022-07-25T21:51:19.151Z,96.53
2022-07-25T21:56:12.602Z,97.20
2022-07-25T22:01:02.172Z,96.62
2022-07-25T22:05:54.378Z,97.81
2022-07-25T22:10:43.844Z,97.52
2022-07-25T22:15:33.270Z,97.95
2022-07-25T22:20:22.976Z,98.89
2022-07-25T22:25:15.358Z,97.95
2022-07-25T22:30:05.096Z,92.73
2022-07-25T22:34:54.530Z,96.63
2022-07-25T22:39:43.916Z,99.14
2022-07-25T22:44:35.936Z,95.00
2022-07-25T22:49:26.299Z,93.61
2022-07-25T22:54:15.862Z,96.35
2022-07-25T22:59:05.759Z,93.27
2022-07-25T23:03:58.367Z,95.84
2022-07-25T23:08:47.994Z,94.67
2022-07-25T23:13:38.065Z,95.44
2022-07-25T23:18:27.702Z,95.78
2022-07-25T23:23:19.903Z,97.23
2022-07-25T23:28:09.383Z,93.70
2022-07-25T23:32:58.815Z,98.03
2022-07-25T23:37:49.019Z,97.65
2022-07-25T23:42:41.177Z,100.00
2022-07-25T23:47:40.734Z,100.00
2022-07-25T23:52:31.364Z,100.00
2022-07-25T23:57:20.900Z,100.00
